KFLGKFMN

Guest
Details From KFLG - Flagstaff Pulliam
To KFMN - Four Corners Rgnl
Flight Number -
Tags Generated
Created
Modified
Stats Distance 194 nm / 359 km
Max Altitude 0 ft / 0 m
Waypoints 2
Social Downloads 1
Likes 0
Share VATSIM

Download

Looking for another format? Having issues loading an existing format? Contact us
Advertisement - Login to hide

Notes

Generated

Route

KFLG KFMN

ID Type Via Altitude Latitude Longitude Leg Dist Tot Dist Heading (true) Name
O KFLG APT - 0 ft / 0 m 35.13122˚ -111.67892˚ - 0 nm - -
O KFMN APT - 0 ft / 0 m 36.74788˚ -108.23339˚ 193 nm 193 nm 59° / 61° -

Altitude Profile

Advertisement - Login to hide

Weather


0- 5 10 15 20 25 30 35+ Temperature / ° C

Clouds and Precipitation
Forecast for 2017-12-18 06:00 UTC. Updated 41 minutes ago

Ground ~20,000 ft ~40,000 ft Winds

KFLG

Details ICAO KFLG (FLG)
Name Flagstaff Pulliam
Region United States
Timezone America/Phoenix (UTC-7.0)
Stats Elevation 7,011 ft / 2,137 m (AMSL)
Location 35.138455° -111.671215°
Runways 1
Magnetic Variation 10.463° E

METAR

KFLG 180357Z AUTO 00000KT 10SM CLR M04/M13 A3007 RMK AO2 SLP178 T10391128

Decode

TAF

TAF KFLG 172338Z 1800/1824 07009KT P6SM SCT060 FM180100 06005KT P6SM SCT060 FM181800 09010KT P6SM SKC

Decode

Departure Runways

ID Width Length Bearing (true) Bearing (mag) Surface Threshold Offset Overrun Length
03 150 ft / 46 m 7,003 ft / 2,135 m 41.03° 30.57° Asphalt 0 ft / 0 m 0 ft / 0 m
21 150 ft / 46 m 7,003 ft / 2,135 m 221.04° 210.58° Asphalt 0 ft / 0 m 0 ft / 0 m

KFMN

Details ICAO KFMN (FMN)
Name FOUR CORNERS RGNL
Region United States
Timezone America/Denver (UTC-7.0)
Stats Elevation 5,505 ft / 1,678 m (AMSL)
Location 36.742770° -108.229772°
Runways 3
Magnetic Variation 9.412° E

METAR

KFMN 180353Z 35008KT 10SM CLR M03/M16 A3009 RMK AO2 SLP213 T10281161 $

Decode

TAF

KFMN 172334Z 1800/1824 29007KT P6SM SKC FM180400 07005KT P6SM FEW250 FM182000 28010KT P6SM SCT250

Decode

Destination Runways

ID Width Length Bearing (true) Bearing (mag) Surface Threshold Offset Overrun Length
05 150 ft / 46 m 6,490 ft / 1,978 m 64.56° 55.15° Asphalt 0 ft / 0 m 0 ft / 0 m
07 100 ft / 30 m 6,689 ft / 2,039 m 88.29° 78.88° Asphalt 240 ft / 73 m 62 ft / 19 m
11 100 ft / 30 m 2,780 ft / 847 m 122.80° 113.39° Dirt 0 ft / 0 m 0 ft / 0 m
23 150 ft / 46 m 6,490 ft / 1,978 m 244.57° 235.16° Asphalt 125 ft / 38 m 0 ft / 0 m
25 100 ft / 30 m 6,689 ft / 2,039 m 268.31° 258.90° Asphalt 187 ft / 57 m 49 ft / 15 m
29 100 ft / 30 m 2,780 ft / 847 m 302.81° 293.40° Dirt 0 ft / 0 m 0 ft / 0 m

Approach Navaids

Runway Type Ident Frequency Range Bearing (true) Bearing (mag) Slope Elevation
25 Localiser IFMN 111.90 MHz 18 nm / 33 km 268.29° 258.88° - 5,473 ft / 1,668 m (AMSL)
25 Glidescope IFMN 111.90 MHz 10 nm / 19 km 268.30° 258.89° 3.00° 5,505 ft / 1,678 m (AMSL)
25 DME IFMN 111.90 MHz 18 nm / 33 km - - - 5,488 ft / 1,673 m (AMSL)